Time;durP1;ratioP1;P1;durP2;ratioP2;P2;SDS_P1;SDS_P2;PMS_P1;PMS_P2;Temp;Humidity;BMP_temperature;BMP_pressure;BME280_temperature;BME280_humidity;BME280_pressure;Samples;Min_cycle;Max_cycle;Signal;HPM_P1;HPM_P2
2022/07/14 00:00:12;;;;;;;13.18;2.40;;;44.00;28.80;;;;;;5027309;28;20036;-66
2022/07/14 00:02:38;;;;;;;23.10;4.07;;;44.00;28.90;;;;;;5028466;28;20014;-65
2022/07/14 00:05:05;;;;;;;19.40;2.47;;;43.90;28.80;;;;;;5028349;28;20119;-65
2022/07/14 00:07:32;;;;;;;10.43;1.88;;;43.90;28.90;;;;;;5043766;28;20393;-67
2022/07/14 00:09:58;;;;;;;7.00;1.75;;;43.90;28.80;;;;;;5026928;28;20028;-67
2022/07/14 00:12:24;;;;;;;12.85;1.92;;;43.70;28.70;;;;;;5027689;28;20032;-65
2022/07/14 00:14:51;;;;;;;14.35;1.83;;;43.70;28.80;;;;;;5026942;28;20080;-67
2022/07/14 00:17:17;;;;;;;13.13;1.70;;;43.70;28.90;;;;;;5027148;28;20051;-66
2022/07/14 00:19:43;;;;;;;8.75;1.77;;;43.50;29.00;;;;;;5026410;28;20104;-68
2022/07/14 00:22:10;;;;;;;14.52;2.10;;;43.50;29.30;;;;;;5026967;28;20045;-66
2022/07/14 00:24:36;;;;;;;15.18;1.88;;;43.40;29.60;;;;;;5026923;28;20041;-65
2022/07/14 00:27:03;;;;;;;16.52;2.10;;;43.30;29.70;;;;;;5029054;28;20141;-66
2022/07/14 00:29:29;;;;;;;14.80;1.95;;;43.20;29.80;;;;;;5031875;28;20522;-66
2022/07/14 00:31:55;;;;;;;11.13;1.88;;;43.20;29.80;;;;;;5047109;28;20058;-65
2022/07/14 00:34:22;;;;;;;8.13;2.20;;;43.20;29.70;;;;;;5030843;28;20052;-65
2022/07/14 00:36:48;;;;;;;13.85;1.77;;;43.10;29.70;;;;;;5030342;28;20045;-66
2022/07/14 00:39:14;;;;;;;9.15;1.90;;;43.20;29.70;;;;;;5047005;28;20046;-66
2022/07/14 00:41:41;;;;;;;16.13;1.92;;;43.20;29.50;;;;;;5031027;28;20095;-66
2022/07/14 00:44:07;;;;;;;12.35;2.33;;;43.10;29.60;;;;;;5031421;28;20065;-66
2022/07/14 00:46:38;;;;;;;14.38;1.67;;;43.10;29.80;;;;;;5030313;28;20047;-67
2022/07/14 00:49:04;;;;;;;10.88;1.90;;;43.00;29.80;;;;;;5029900;28;20277;-65
2022/07/14 00:51:31;;;;;;;18.58;2.40;;;42.80;29.70;;;;;;5046943;28;20198;-65
2022/07/14 00:53:57;;;;;;;19.40;2.03;;;42.80;29.70;;;;;;5029879;28;20428;-65
2022/07/14 00:56:24;;;;;;;12.15;1.55;;;42.80;29.50;;;;;;5046643;28;20032;-66
2022/07/14 00:58:51;;;;;;;13.98;1.90;;;42.70;29.50;;;;;;5029909;28;20664;-65
2022/07/14 01:01:17;;;;;;;10.10;1.98;;;42.60;29.50;;;;;;5030246;28;20401;-65
2022/07/14 01:03:44;;;;;;;6.72;1.63;;;42.50;29.30;;;;;;5030406;28;20041;-65
2022/07/14 01:06:10;;;;;;;17.60;2.30;;;42.40;29.80;;;;;;5046150;28;20052;-65
2022/07/14 01:08:36;;;;;;;12.32;1.63;;;42.30;29.80;;;;;;5029665;28;20055;-65
2022/07/14 01:11:07;;;;;;;14.60;2.22;;;42.20;30.00;;;;;;5030540;28;20405;-64
2022/07/14 01:13:35;;;;;;;18.92;1.95;;;42.10;29.80;;;;;;5045105;28;20484;-68
2022/07/14 01:16:02;;;;;;;17.95;2.20;;;41.90;30.00;;;;;;5029617;28;20044;-67
2022/07/14 01:18:29;;;;;;;11.80;1.75;;;41.90;30.40;;;;;;5029879;28;20443;-68
2022/07/14 01:20:55;;;;;;;18.40;2.00;;;41.80;30.40;;;;;;5029625;28;20489;-68
2022/07/14 01:23:22;;;;;;;17.10;2.55;;;41.70;30.60;;;;;;5029345;28;20705;-66
2022/07/14 01:25:48;;;;;;;10.23;2.10;;;41.70;30.60;;;;;;5030762;28;20572;-69
2022/07/14 01:28:14;;;;;;;11.85;1.80;;;41.60;30.70;;;;;;5029450;28;20053;-66
2022/07/14 01:30:41;;;;;;;22.63;2.75;;;41.60;30.30;;;;;;5013119;28;20051;-68
2022/07/14 01:33:07;;;;;;;26.35;2.92;;;41.40;30.20;;;;;;5046468;28;20058;-70
2022/07/14 01:35:34;;;;;;;23.17;2.60;;;41.30;30.50;;;;;;5029363;28;20149;-67
2022/07/14 01:38:00;;;;;;;16.25;2.20;;;41.20;30.80;;;;;;5029193;28;20050;-67
2022/07/14 01:40:27;;;;;;;14.18;2.83;;;41.20;30.90;;;;;;5031358;28;20053;-68
2022/07/14 01:42:53;;;;;;;28.63;2.60;;;41.30;31.20;;;;;;5030849;28;20077;-65
2022/07/14 01:45:20;;;;;;;18.83;2.40;;;41.00;31.40;;;;;;5030674;28;20699;-68
2022/07/14 01:47:46;;;;;;;12.35;2.33;;;40.90;32.00;;;;;;5030816;28;20046;-68
2022/07/14 01:50:13;;;;;;;16.95;2.67;;;40.80;32.40;;;;;;5045435;28;20489;-64
2022/07/14 01:52:39;;;;;;;16.75;2.55;;;40.70;32.90;;;;;;5032060;28;20096;-67
2022/07/14 01:55:06;;;;;;;19.80;2.97;;;40.70;33.40;;;;;;5029003;28;20042;-70
2022/07/14 01:57:32;;;;;;;15.35;3.22;;;40.60;33.90;;;;;;5030233;28;20092;-65
2022/07/14 01:59:59;;;;;;;17.15;2.42;;;40.50;34.40;;;;;;5048477;28;20077;-68
2022/07/14 02:02:26;;;;;;;29.52;3.28;;;40.40;34.30;;;;;;5030845;28;20200;-68
2022/07/14 02:04:52;;;;;;;23.95;2.78;;;40.30;34.50;;;;;;5047752;28;20521;-68
2022/07/14 02:07:18;;;;;;;24.25;2.55;;;40.20;34.60;;;;;;5028660;28;20545;-66
2022/07/14 02:12:29;;;;;;;23.08;2.50;;;40.00;35.20;;;;;;5030809;28;20072;-65
2022/07/14 02:14:56;;;;;;;25.00;2.67;;;40.00;35.70;;;;;;5028575;28;20122;-65
2022/07/14 02:17:22;;;;;;;25.73;3.70;;;39.90;36.00;;;;;;5045231;28;20100;-65
2022/07/14 02:19:48;;;;;;;15.88;3.10;;;39.80;35.60;;;;;;5028836;28;20052;-65
2022/07/14 02:22:15;;;;;;;16.52;3.10;;;39.80;35.60;;;;;;5028242;28;20059;-65
2022/07/14 02:24:41;;;;;;;50.15;4.10;;;39.60;35.50;;;;;;5028710;28;20065;-64
2022/07/14 02:27:08;;;;;;;21.50;3.10;;;39.60;36.00;;;;;;5028594;28;20079;-64
2022/07/14 02:29:34;;;;;;;18.58;3.22;;;39.50;36.10;;;;;;5028002;28;20078;-68
2022/07/14 02:32:00;;;;;;;25.65;3.15;;;39.40;36.30;;;;;;5029846;28;20060;-67
2022/07/14 02:34:27;;;;;;;21.73;3.00;;;39.30;36.80;;;;;;5043797;28;20072;-68
2022/07/14 02:36:55;;;;;;;36.33;4.28;;;39.30;36.70;;;;;;5031410;28;20093;-65
2022/07/14 02:39:21;;;;;;;28.02;3.33;;;39.20;36.60;;;;;;5028361;28;20143;-65
2022/07/14 02:41:49;;;;;;;17.98;2.55;;;39.10;36.80;;;;;;5045274;28;20052;-65
2022/07/14 02:44:15;;;;;;;22.35;2.90;;;39.00;36.80;;;;;;5028308;28;20085;-66
2022/07/14 02:46:41;;;;;;;18.08;2.60;;;39.00;37.00;;;;;;5028446;28;20528;-67
2022/07/14 02:49:08;;;;;;;22.02;2.78;;;38.90;37.10;;;;;;5027762;28;20109;-66
2022/07/14 02:51:34;;;;;;;31.27;4.05;;;38.90;36.60;;;;;;5044616;28;20083;-69
2022/07/14 02:54:01;;;;;;;21.83;3.88;;;38.80;36.40;;;;;;5028143;28;20427;-66
2022/07/14 02:56:27;;;;;;;25.25;2.85;;;38.70;36.40;;;;;;5028155;28;20065;-69
2022/07/14 02:58:54;;;;;;;24.65;3.58;;;38.70;36.80;;;;;;5027513;28;20092;-68
2022/07/14 03:01:20;;;;;;;25.85;3.45;;;38.60;36.80;;;;;;5011742;28;20048;-74
2022/07/14 03:03:47;;;;;;;23.88;3.55;;;38.50;36.60;;;;;;5028457;28;20062;-65
2022/07/14 03:06:19;;;;;;;24.67;3.70;;;38.50;36.80;;;;;;5027677;28;20069;-67
2022/07/14 03:08:45;;;;;;;24.05;4.20;;;38.40;36.70;;;;;;5027385;28;20105;-66
2022/07/14 03:11:12;;;;;;;25.77;4.30;;;38.30;36.80;;;;;;5030027;28;20079;-66
2022/07/14 03:13:38;;;;;;;31.33;3.97;;;38.20;36.60;;;;;;5027398;28;20574;-66
2022/07/14 03:16:12;;;;;;;24.80;3.20;;;38.20;36.50;;;;;;5026974;28;21456;-66
2022/07/14 03:18:39;;;;;;;20.98;2.47;;;38.20;36.50;;;;;;5027404;28;20064;-69
2022/07/14 03:21:13;;;;;;;20.00;2.85;;;38.10;36.30;;;;;;5044179;28;20153;-66
2022/07/14 03:23:40;;;;;;;19.30;2.33;;;38.00;36.10;;;;;;5028888;28;20477;-65
2022/07/14 03:26:07;;;;;;;28.10;2.83;;;38.00;36.00;;;;;;5027507;28;20071;-66
2022/07/14 03:28:33;;;;;;;24.13;2.85;;;37.90;35.90;;;;;;5026393;28;20061;-67
2022/07/14 03:30:59;;;;;;;22.55;2.92;;;37.90;35.90;;;;;;5028774;28;20127;-64
2022/07/14 03:33:26;;;;;;;28.15;2.92;;;37.80;35.70;;;;;;5027217;28;20494;-66
2022/07/14 03:35:52;;;;;;;15.43;3.05;;;37.80;35.80;;;;;;5028894;28;20117;-66
2022/07/14 03:38:19;;;;;;;13.68;3.25;;;37.70;35.60;;;;;;5011057;28;20430;-68
2022/07/14 03:40:46;;;;;;;16.88;3.65;;;37.70;35.60;;;;;;5045012;28;20072;-67
2022/07/14 03:43:12;;;;;;;20.23;5.50;;;37.70;35.80;;;;;;5027642;28;20525;-67
2022/07/14 03:45:39;;;;;;;20.58;5.03;;;37.60;35.60;;;;;;5027467;28;20075;-65
2022/07/14 03:48:07;;;;;;;26.33;5.55;;;37.60;35.70;;;;;;5027378;28;20167;-65
2022/07/14 03:50:35;;;;;;;19.67;6.82;;;37.50;35.80;;;;;;5027192;28;20075;-66
2022/07/14 03:53:01;;;;;;;27.65;8.50;;;37.40;36.60;;;;;;5028990;28;20105;-66
2022/07/14 03:55:27;;;;;;;26.40;9.40;;;37.50;36.00;;;;;;5027502;28;20070;-65
2022/07/14 03:57:54;;;;;;;35.05;10.10;;;37.40;35.90;;;;;;5043378;28;20110;-65
2022/07/14 04:00:21;;;;;;;25.08;10.85;;;37.40;36.00;;;;;;5027463;28;20054;-65
2022/07/14 04:02:47;;;;;;;31.02;9.93;;;37.30;36.20;;;;;;5031537;28;20075;-67
2022/07/14 04:05:13;;;;;;;22.00;8.63;;;37.30;36.10;;;;;;5031482;28;20070;-67
2022/07/14 04:07:40;;;;;;;36.67;8.18;;;37.20;36.20;;;;;;5030951;28;20526;-65
2022/07/14 04:10:06;;;;;;;25.15;6.75;;;37.20;36.30;;;;;;5031298;28;20078;-65
2022/07/14 04:12:33;;;;;;;28.15;9.00;;;37.20;36.10;;;;;;5031813;28;20529;-68
2022/07/14 04:14:59;;;;;;;35.33;10.77;;;37.10;36.20;;;;;;5030479;28;20097;-68
2022/07/14 04:17:26;;;;;;;53.63;17.52;;;37.10;36.20;;;;;;5032036;28;20076;-66
2022/07/14 04:19:52;;;;;;;28.38;11.35;;;37.00;36.80;;;;;;5030744;28;20056;-66
2022/07/14 04:22:19;;;;;;;22.38;7.13;;;37.00;36.50;;;;;;5032720;28;20539;-67
2022/07/14 04:24:45;;;;;;;27.88;7.28;;;36.90;36.50;;;;;;5030535;28;20531;-66
2022/07/14 04:27:11;;;;;;;27.23;6.13;;;36.90;36.70;;;;;;5030416;28;20456;-65
2022/07/14 04:29:38;;;;;;;21.63;5.90;;;36.90;36.50;;;;;;5014191;28;20437;-68
2022/07/14 04:32:05;;;;;;;26.13;5.88;;;36.80;36.70;;;;;;5046394;28;20220;-66
2022/07/14 04:34:31;;;;;;;14.65;4.93;;;36.70;36.40;;;;;;5047173;28;20087;-65
2022/07/14 04:36:58;;;;;;;20.95;4.25;;;36.70;36.40;;;;;;5046826;28;20128;-65
2022/07/14 04:39:24;;;;;;;26.38;3.25;;;36.70;36.30;;;;;;5030509;28;20533;-65
2022/07/14 04:41:50;;;;;;;29.60;3.38;;;36.70;36.20;;;;;;5031137;28;20091;-66
2022/07/14 04:44:17;;;;;;;31.13;3.33;;;36.60;35.90;;;;;;5030663;28;20097;-66
2022/07/14 04:46:43;;;;;;;27.10;4.28;;;36.60;36.00;;;;;;5029918;28;20166;-67
2022/07/14 04:52:03;;;;;;;21.52;4.80;;;36.60;35.90;;;;;;5031763;28;20145;-66
2022/07/14 04:54:33;;;;;;;29.87;4.87;;;36.60;36.40;;;;;;5029900;28;20116;-68
2022/07/14 04:57:01;;;;;;;26.00;5.97;;;36.50;35.70;;;;;;5013929;28;20307;-70
2022/07/14 04:59:28;;;;;;;33.38;5.90;;;36.50;36.10;;;;;;5030406;28;20109;-70
2022/07/14 05:01:55;;;;;;;34.47;6.38;;;36.40;35.60;;;;;;5030414;28;20066;-69
2022/07/14 05:04:22;;;;;;;41.60;6.60;;;36.50;35.50;;;;;;5047207;28;20165;-66
2022/07/14 05:06:49;;;;;;;23.85;5.15;;;36.50;35.50;;;;;;5014418;28;20088;-66
2022/07/14 05:09:18;;;;;;;21.13;4.78;;;36.40;35.50;;;;;;5029642;28;20074;-68
2022/07/14 05:11:45;;;;;;;23.10;5.43;;;36.30;35.30;;;;;;5030385;28;20070;-69
2022/07/14 05:14:12;;;;;;;22.40;5.03;;;36.40;35.50;;;;;;5046449;28;20090;-66
2022/07/14 05:16:38;;;;;;;21.05;4.35;;;36.40;35.50;;;;;;5029696;28;20096;-66
2022/07/14 05:19:05;;;;;;;20.42;4.38;;;36.30;35.30;;;;;;5029882;28;20069;-67
2022/07/14 05:21:32;;;;;;;20.30;5.55;;;36.40;35.30;;;;;;5029617;28;20493;-67
2022/07/14 05:23:58;;;;;;;23.25;6.00;;;36.30;35.10;;;;;;5029802;28;20083;-68
2022/07/14 05:26:24;;;;;;;32.28;6.88;;;36.30;35.20;;;;;;5044530;28;20090;-65
2022/07/14 05:28:52;;;;;;;25.42;6.78;;;36.30;35.30;;;;;;5030526;28;20076;-68
2022/07/14 05:31:18;;;;;;;20.73;6.50;;;36.20;35.40;;;;;;5029392;28;20091;-66
2022/07/14 05:33:44;;;;;;;13.77;4.75;;;36.20;35.30;;;;;;5029346;28;20087;-65
2022/07/14 05:36:11;;;;;;;19.77;4.78;;;36.20;35.40;;;;;;5029400;28;20452;-67
2022/07/14 05:38:38;;;;;;;13.10;4.18;;;36.10;35.30;;;;;;5045758;28;20068;-64
2022/07/14 05:41:04;;;;;;;21.33;4.70;;;36.10;35.90;;;;;;5029966;28;20071;-66
2022/07/14 05:43:33;;;;;;;15.98;4.78;;;36.10;35.40;;;;;;5029598;28;20424;-65
2022/07/14 05:46:07;;;;;;;17.70;5.40;;;36.10;35.40;;;;;;5027584;28;20095;-65
2022/07/14 05:48:34;;;;;;;27.15;6.22;;;36.10;35.50;;;;;;5045313;28;20075;-64
2022/07/14 05:51:10;;;;;;;21.67;5.43;;;36.00;35.50;;;;;;5028738;28;20172;-65
2022/07/14 05:53:36;;;;;;;23.13;5.68;;;36.00;35.60;;;;;;5029548;28;20085;-65
2022/07/14 05:56:04;;;;;;;20.45;4.90;;;36.00;35.80;;;;;;5028907;28;20071;-67
2022/07/14 05:58:30;;;;;;;16.98;4.97;;;36.00;36.50;;;;;;5028753;28;20156;-66
2022/07/14 06:00:57;;;;;;;20.73;5.63;;;35.90;36.10;;;;;;5028545;28;20077;-68
2022/07/14 06:03:24;;;;;;;22.23;5.43;;;35.90;36.30;;;;;;5030023;28;20098;-64
2022/07/14 06:05:51;;;;;;;17.70;4.93;;;35.90;36.60;;;;;;5029505;28;20075;-69
2022/07/14 06:08:17;;;;;;;20.38;5.68;;;35.90;37.00;;;;;;5029734;28;20074;-66
2022/07/14 06:10:44;;;;;;;19.60;6.72;;;35.80;37.20;;;;;;5029193;28;20075;-64
2022/07/14 06:13:10;;;;;;;20.67;5.93;;;35.80;37.40;;;;;;5045691;28;20084;-65
2022/07/14 06:15:37;;;;;;;21.88;5.45;;;35.80;37.80;;;;;;5030071;28;20630;-64
2022/07/14 06:18:03;;;;;;;25.52;5.50;;;35.80;38.00;;;;;;5028503;28;20133;-64
2022/07/14 06:20:30;;;;;;;21.80;5.25;;;35.70;38.30;;;;;;5028733;28;20068;-66
2022/07/14 06:22:56;;;;;;;26.73;5.20;;;35.70;38.50;;;;;;5045405;28;20117;-68
2022/07/14 06:25:22;;;;;;;26.17;6.50;;;35.70;38.70;;;;;;5044453;28;20161;-64
2022/07/14 06:27:49;;;;;;;22.92;7.75;;;35.60;38.90;;;;;;5044629;28;20413;-65
2022/07/14 06:30:15;;;;;;;34.70;10.63;;;35.60;39.20;;;;;;5028126;28;20556;-66
2022/07/14 06:32:42;;;;;;;34.22;11.93;;;35.50;39.40;;;;;;5028538;28;20505;-65
2022/07/14 06:35:10;;;;;;;35.25;10.07;;;35.50;39.60;;;;;;5029430;28;20099;-65
2022/07/14 06:37:36;;;;;;;27.67;9.85;;;35.50;39.80;;;;;;5028300;28;20130;-65
2022/07/14 06:40:05;;;;;;;24.17;9.57;;;35.40;39.70;;;;;;5029974;28;20430;-65
2022/07/14 06:42:32;;;;;;;31.33;12.95;;;35.30;40.00;;;;;;5029998;28;20442;-66
2022/07/14 06:44:59;;;;;;;29.58;13.13;;;35.40;40.00;;;;;;5027975;28;20443;-65
2022/07/14 06:47:26;;;;;;;40.08;15.93;;;35.30;40.00;;;;;;5011801;28;20072;-64
2022/07/14 06:49:52;;;;;;;40.22;16.67;;;35.30;40.20;;;;;;5029221;28;20097;-67
2022/07/14 06:52:18;;;;;;;34.20;14.32;;;35.30;40.10;;;;;;5044482;28;20072;-64
2022/07/14 06:54:45;;;;;;;27.17;10.15;;;35.30;40.00;;;;;;5044681;28;20828;-64
2022/07/14 06:57:11;;;;;;;31.52;9.32;;;35.30;40.20;;;;;;5028422;28;20079;-64
2022/07/14 06:59:37;;;;;;;29.10;9.73;;;35.30;40.30;;;;;;5044430;28;20099;-64
2022/07/14 07:02:04;;;;;;;20.13;7.25;;;35.30;40.60;;;;;;5044130;28;20088;-66
2022/07/14 07:04:30;;;;;;;32.20;7.93;;;35.30;40.70;;;;;;5027217;28;20080;-66
2022/07/14 07:06:56;;;;;;;22.08;5.50;;;35.30;41.00;;;;;;5027219;28;20103;-64
2022/07/14 07:09:23;;;;;;;17.65;5.10;;;35.30;41.10;;;;;;5027663;28;20072;-66
2022/07/14 07:11:49;;;;;;;15.70;4.25;;;35.30;41.30;;;;;;5029518;28;20539;-63
2022/07/14 07:14:17;;;;;;;14.98;4.05;;;35.30;41.30;;;;;;5028735;28;20104;-63
2022/07/14 07:16:49;;;;;;;18.73;4.53;;;35.20;41.40;;;;;;5027972;28;20458;-64
2022/07/14 07:19:17;;;;;;;15.48;4.00;;;35.20;41.60;;;;;;5044182;28;20143;-65
2022/07/14 07:21:43;;;;;;;9.90;3.10;;;35.20;41.60;;;;;;5027333;28;20639;-65
2022/07/14 07:24:10;;;;;;;14.07;2.55;;;35.20;41.70;;;;;;5029381;28;20141;-64
2022/07/14 07:26:38;;;;;;;8.10;2.30;;;35.20;41.80;;;;;;5027272;28;20073;-65
2022/07/14 07:29:05;;;;;;;10.52;2.42;;;35.10;42.60;;;;;;5011946;28;20091;-67
2022/07/14 07:31:33;;;;;;;10.45;2.67;;;35.00;43.60;;;;;;5028857;28;20198;-66
2022/07/14 07:34:01;;;;;;;7.28;2.20;;;34.90;44.30;;;;;;5026711;28;20172;-65
2022/07/14 07:36:27;;;;;;;9.60;2.17;;;34.80;44.80;;;;;;5032043;28;20142;-64
2022/07/14 07:38:54;;;;;;;15.02;2.95;;;34.70;45.30;;;;;;5034160;28;20470;-65
2022/07/14 07:41:20;;;;;;;14.00;2.40;;;34.60;45.90;;;;;;5034986;28;20203;-65
2022/07/14 07:43:46;;;;;;;13.07;2.25;;;34.50;46.60;;;;;;5050987;28;20669;-67
2022/07/14 07:46:13;;;;;;;12.20;2.72;;;34.40;47.10;;;;;;5034052;28;20523;-64
2022/07/14 07:48:39;;;;;;;10.43;1.98;;;34.30;47.40;;;;;;5034445;28;20085;-64
2022/07/14 07:51:05;;;;;;;8.75;2.78;;;34.30;47.60;;;;;;5033969;28;20081;-65
2022/07/14 07:53:32;;;;;;;12.65;2.97;;;34.20;47.60;;;;;;5034311;28;20124;-65
2022/07/14 07:55:58;;;;;;;8.90;2.70;;;34.10;47.80;;;;;;5050867;28;20073;-65
2022/07/14 07:58:25;;;;;;;10.70;2.30;;;34.10;47.80;;;;;;5049922;28;20154;-65
2022/07/14 08:00:51;;;;;;;9.75;2.95;;;34.00;47.90;;;;;;5035107;28;20073;-67
2022/07/14 08:03:17;;;;;;;12.98;2.92;;;34.00;48.00;;;;;;5034956;28;20081;-66
2022/07/14 08:05:44;;;;;;;13.43;2.90;;;34.00;48.00;;;;;;5035234;28;20077;-64
2022/07/14 08:08:11;;;;;;;11.05;2.80;;;33.90;48.10;;;;;;5033454;28;20068;-64
2022/07/14 08:10:38;;;;;;;8.82;2.80;;;33.90;48.20;;;;;;5033504;28;20101;-67
2022/07/14 08:13:05;;;;;;;8.80;2.40;;;33.80;48.40;;;;;;5034277;28;20443;-65
2022/07/14 08:15:31;;;;;;;9.13;2.30;;;33.80;48.30;;;;;;5033511;28;20068;-67
2022/07/14 08:17:59;;;;;;;8.25;2.13;;;33.80;48.30;;;;;;5033802;28;20080;-63
2022/07/14 08:20:25;;;;;;;11.02;2.70;;;33.70;48.30;;;;;;5033413;28;20077;-65
2022/07/14 08:22:52;;;;;;;9.48;2.15;;;33.70;48.30;;;;;;5050175;28;20081;-66
2022/07/14 08:25:18;;;;;;;8.13;2.50;;;33.70;48.40;;;;;;5035470;28;20077;-65
2022/07/14 08:27:45;;;;;;;7.38;3.28;;;33.70;48.50;;;;;;5050583;28;20164;-64
2022/07/14 08:30:11;;;;;;;12.52;3.47;;;33.60;48.60;;;;;;5034715;28;20069;-65
2022/07/14 08:32:44;;;;;;;12.00;3.10;;;33.60;48.70;;;;;;5032846;28;20077;-64
2022/07/14 08:35:14;;;;;;;10.00;2.58;;;33.50;48.90;;;;;;5033346;28;20092;-65
2022/07/14 08:37:41;;;;;;;9.85;2.28;;;33.40;49.10;;;;;;5033138;28;20071;-63
2022/07/14 08:40:11;;;;;;;10.73;2.47;;;33.40;49.10;;;;;;5034341;28;20684;-65
2022/07/14 08:42:39;;;;;;;11.05;2.30;;;33.50;49.30;;;;;;5050995;28;20113;-64
2022/07/14 08:45:12;;;;;;;11.35;2.20;;;33.40;49.40;;;;;;5032275;28;20096;-65
2022/07/14 08:47:40;;;;;;;10.88;2.40;;;33.40;49.50;;;;;;5031039;28;20104;-65
2022/07/14 08:50:09;;;;;;;7.55;2.92;;;33.40;49.30;;;;;;5014251;28;20072;-65
2022/07/14 08:52:36;;;;;;;15.88;4.43;;;33.40;49.40;;;;;;5031349;28;20966;-64
2022/07/14 08:55:10;;;;;;;20.67;6.70;;;33.40;49.40;;;;;;5032145;28;20088;-63
2022/07/14 08:57:38;;;;;;;22.23;7.75;;;33.40;49.60;;;;;;5030104;28;20114;-67
2022/07/14 09:00:09;;;;;;;20.17;7.68;;;33.40;49.70;;;;;;5013895;28;20213;-65
2022/07/14 09:02:37;;;;;;;14.88;6.03;;;33.40;49.70;;;;;;5029961;28;20075;-65
2022/07/14 09:05:04;;;;;;;23.98;8.73;;;33.40;49.40;;;;;;5030811;28;20123;-65
2022/07/14 09:07:36;;;;;;;24.10;10.10;;;33.40;49.50;;;;;;5029727;28;20485;-64
2022/07/14 09:10:06;;;;;;;26.95;12.52;;;33.30;49.40;;;;;;5031376;28;20073;-67
2022/07/14 09:12:33;;;;;;;29.60;10.27;;;33.40;49.20;;;;;;5029321;28;20073;-65
2022/07/14 09:18:02;;;;;;;29.35;10.32;;;33.30;48.80;;;;;;5031450;28;20222;-64
2022/07/14 09:20:31;;;;;;;23.55;9.38;;;33.30;48.80;;;;;;5013138;28;20084;-64
2022/07/14 09:22:59;;;;;;;28.38;9.93;;;33.30;48.90;;;;;;5029866;28;20065;-67
2022/07/14 09:25:28;;;;;;;29.30;13.40;;;33.30;48.60;;;;;;5013329;28;20080;-64
2022/07/14 09:27:56;;;;;;;35.45;13.45;;;33.30;48.60;;;;;;5013268;28;20072;-65
2022/07/14 09:30:24;;;;;;;28.05;13.57;;;33.30;48.70;;;;;;5029982;28;20069;-66
2022/07/14 09:32:51;;;;;;;28.05;10.63;;;33.30;48.90;;;;;;5029244;28;20481;-65
2022/07/14 09:35:21;;;;;;;12.13;4.18;;;33.30;48.90;;;;;;5028335;28;20154;-65
2022/07/14 09:37:48;;;;;;;10.05;2.90;;;33.40;49.20;;;;;;5028508;28;20065;-64
2022/07/14 09:40:28;;;;;;;9.98;2.50;;;33.30;50.90;;;;;;5029689;28;20080;-65
2022/07/14 09:42:56;;;;;;;5.97;2.03;;;33.20;51.70;;;;;;5046184;28;20073;-63
2022/07/14 09:45:24;;;;;;;7.22;1.90;;;33.10;53.50;;;;;;5029842;28;20069;-66
2022/07/14 09:48:12;;;;;;;10.20;2.50;;;33.00;54.90;;;;;;5029241;28;20083;-64
2022/07/14 09:50:49;;;;;;;9.80;2.30;;;32.90;56.30;;;;;;5029981;28;20100;-64
2022/07/14 09:53:27;;;;;;;11.30;2.78;;;32.80;58.50;;;;;;5030394;28;20084;-64
2022/07/14 09:56:03;;;;;;;13.88;2.60;;;32.70;58.90;;;;;;5012131;28;20088;-63
2022/07/14 09:58:32;;;;;;;16.88;2.85;;;32.60;59.50;;;;;;5028354;28;20200;-64
2022/07/14 10:00:58;;;;;;;14.25;2.80;;;32.50;60.80;;;;;;5028311;28;20081;-66
2022/07/14 10:03:27;;;;;;;15.30;3.40;;;32.40;61.40;;;;;;5028921;28;20113;-64
2022/07/14 10:05:56;;;;;;;12.70;2.92;;;32.40;62.20;;;;;;5029029;28;20073;-64
2022/07/14 10:08:33;;;;;;;14.23;3.08;;;32.30;62.60;;;;;;5043849;28;20075;-63
2022/07/14 10:11:01;;;;;;;10.02;2.42;;;32.30;63.40;;;;;;5028362;28;20188;-64
2022/07/14 10:13:27;;;;;;;13.32;3.30;;;32.30;64.00;;;;;;5030914;28;20089;-65
2022/07/14 10:15:56;;;;;;;10.70;3.20;;;32.20;64.00;;;;;;5045562;28;20114;-66
2022/07/14 10:18:25;;;;;;;12.02;2.90;;;32.20;64.60;;;;;;5029637;28;20069;-66
2022/07/14 10:20:53;;;;;;;16.48;3.63;;;32.10;65.20;;;;;;5028512;28;20076;-64
2022/07/14 10:23:21;;;;;;;11.65;3.47;;;32.10;66.10;;;;;;5029551;28;20069;-65
2022/07/14 10:25:59;;;;;;;11.98;3.05;;;32.00;66.80;;;;;;5028318;28;20163;-65
2022/07/14 10:28:26;;;;;;;8.60;2.70;;;32.00;67.60;;;;;;5044894;28;20074;-64
2022/07/14 10:31:14;;;;;;;12.70;2.75;;;32.00;68.70;;;;;;5028487;28;20070;-62
2022/07/14 10:33:53;;;;;;;15.18;2.83;;;32.00;69.10;;;;;;5028548;28;20093;-65
2022/07/14 10:36:33;;;;;;;10.25;2.88;;;31.80;69.60;;;;;;5043917;28;20091;-66
2022/07/14 10:39:29;;;;;;;13.80;3.13;;;31.80;70.10;;;;;;5028380;28;20120;-64
2022/07/14 10:42:20;;;;;;;8.85;2.88;;;31.80;70.40;;;;;;5017448;28;20096;-65
2022/07/14 10:44:47;;;;;;;10.65;3.05;;;31.80;70.40;;;;;;5027669;28;20069;-64
2022/07/14 10:47:16;;;;;;;11.30;3.13;;;31.80;70.20;;;;;;5028623;28;20516;-65
2022/07/14 10:50:06;;;;;;;11.18;2.78;;;31.70;70.30;;;;;;5027680;28;20080;-63
2022/07/14 10:52:35;;;;;;;9.77;2.72;;;31.60;70.80;;;;;;5028608;28;20088;-65
2022/07/14 10:55:12;;;;;;;10.65;2.40;;;31.60;70.90;;;;;;5043717;28;20093;-64
2022/07/14 10:57:39;;;;;;;13.00;2.97;;;31.60;70.90;;;;;;5043990;28;20155;-63
2022/07/14 11:00:06;;;;;;;9.32;2.40;;;31.60;70.50;;;;;;5044696;28;20618;-66
2022/07/14 11:02:34;;;;;;;9.35;2.72;;;31.60;70.80;;;;;;5027437;28;20519;-63
2022/07/14 11:05:02;;;;;;;8.45;2.70;;;31.60;71.20;;;;;;5027744;28;20081;-64
2022/07/14 11:07:48;;;;;;;10.15;2.38;;;31.50;70.80;;;;;;5028450;28;20142;-64
2022/07/14 11:10:20;;;;;;;10.65;2.75;;;31.60;70.80;;;;;;5011349;28;20072;-64
2022/07/14 11:13:05;;;;;;;8.40;2.22;;;31.50;71.20;;;;;;5028060;28;20446;-67
2022/07/14 11:15:45;;;;;;;8.40;2.50;;;31.50;70.10;;;;;;5044440;28;20100;-64
2022/07/14 11:18:21;;;;;;;12.05;2.80;;;31.50;70.00;;;;;;5027393;28;20073;-64
2022/07/14 11:21:06;;;;;;;9.85;2.20;;;31.50;69.80;;;;;;5027876;28;20772;-66
2022/07/14 11:23:46;;;;;;;9.45;2.25;;;31.40;69.80;;;;;;5027034;28;20108;-63
2022/07/14 11:26:37;;;;;;;10.18;2.22;;;31.30;69.90;;;;;;5027618;28;20081;-66
2022/07/14 11:29:11;;;;;;;7.57;2.25;;;31.30;70.00;;;;;;5027947;28;20085;-63
2022/07/14 11:31:46;;;;;;;7.32;2.25;;;31.30;70.30;;;;;;5027181;28;20096;-65
2022/07/14 11:37:05;;;;;;;13.95;2.83;;;31.10;70.80;;;;;;5028012;28;20128;-62
2022/07/14 11:39:39;;;;;;;9.95;2.65;;;31.10;70.90;;;;;;5027313;28;20591;-64
2022/07/14 11:42:11;;;;;;;12.25;2.47;;;31.10;71.40;;;;;;5027970;28;20089;-65
2022/07/14 11:44:41;;;;;;;11.25;2.70;;;31.10;71.90;;;;;;5027651;28;20073;-64
2022/07/14 11:47:15;;;;;;;8.70;2.55;;;31.10;71.00;;;;;;5027424;28;20248;-65
2022/07/14 11:49:49;;;;;;;11.45;2.30;;;31.00;70.80;;;;;;5027142;28;20073;-69
2022/07/14 11:52:23;;;;;;;12.60;2.83;;;31.10;70.10;;;;;;5027196;28;20528;-61
2022/07/14 11:54:53;;;;;;;12.70;2.78;;;31.10;69.00;;;;;;5027425;28;20099;-63
2022/07/14 11:57:21;;;;;;;20.85;3.33;;;31.10;68.40;;;;;;5026075;28;20073;-64
2022/07/14 11:59:47;;;;;;;10.40;2.35;;;31.10;67.20;;;;;;5028072;28;20115;-65
2022/07/14 12:02:17;;;;;;;9.43;2.53;;;31.00;66.90;;;;;;5044380;28;20069;-66
2022/07/14 12:04:56;;;;;;;10.68;2.65;;;31.00;66.50;;;;;;5027829;28;20163;-64
2022/07/14 12:07:25;;;;;;;10.68;2.58;;;31.00;65.90;;;;;;5044162;28;20130;-63
2022/07/14 12:09:53;;;;;;;15.02;2.95;;;31.00;65.70;;;;;;5027412;28;20423;-65
2022/07/14 12:12:24;;;;;;;10.10;3.28;;;31.00;65.40;;;;;;5028965;28;20576;-63
2022/07/14 12:14:53;;;;;;;15.68;2.78;;;31.10;65.20;;;;;;5028485;28;20103;-64
2022/07/14 12:17:23;;;;;;;10.45;2.83;;;31.20;65.10;;;;;;5027339;28;20477;-64
2022/07/14 12:19:50;;;;;;;9.65;2.72;;;31.20;65.50;;;;;;5027224;28;20462;-64
2022/07/14 12:22:16;;;;;;;7.00;2.70;;;31.20;66.30;;;;;;5027731;28;20069;-64
2022/07/14 12:24:43;;;;;;;13.77;3.90;;;31.10;67.40;;;;;;5047195;28;20606;-65
2022/07/14 12:27:11;;;;;;;11.82;3.13;;;31.10;67.90;;;;;;5030642;28;20095;-65
2022/07/14 12:29:49;;;;;;;10.85;3.60;;;31.10;68.10;;;;;;5031876;28;20658;-64
2022/07/14 12:32:16;;;;;;;14.43;3.28;;;31.20;68.40;;;;;;5028948;28;20111;-64
2022/07/14 12:34:44;;;;;;;11.07;2.85;;;31.10;68.70;;;;;;5030892;28;20175;-63
2022/07/14 12:37:11;;;;;;;15.55;3.60;;;31.00;69.20;;;;;;5030210;28;20125;-65
2022/07/14 12:39:38;;;;;;;17.50;4.05;;;31.00;69.70;;;;;;5031833;28;20494;-65
2022/07/14 12:42:05;;;;;;;17.10;4.03;;;31.10;70.20;;;;;;5030912;28;20095;-64
2022/07/14 12:44:31;;;;;;;13.88;3.78;;;31.00;70.70;;;;;;5030530;28;20069;-63
2022/07/14 12:47:16;;;;;;;16.15;3.60;;;30.90;71.80;;;;;;5047304;28;20081;-66
2022/07/14 12:49:47;;;;;;;17.65;3.90;;;30.90;73.00;;;;;;5031531;28;20431;-67
2022/07/14 12:52:14;;;;;;;12.38;3.05;;;30.80;73.50;;;;;;5030415;28;20079;-64
2022/07/14 12:54:42;;;;;;;13.15;3.05;;;30.80;73.90;;;;;;5028633;28;20445;-63